New Yoshino — JG5527 — position and weather

sailwx.info

Track history (hours):
 
Tides and Currents Weather Stations Pressure Air Temp Water Temp Dewpoint Dewpoint Depression Visibility Wind Speed Wind Dir Waves Ship Positions

New Yoshino

Last reported at 2015-May-20 23:20 UTC. Time now 2015-May-22 13:05 UTC.
Position N 35°32' E 140°50'.

Length 102 m; draft 6.5 m.

Type: Tanker. MMSI: 431300724.

Date/timePositionNaut miles runAvg speedWind from/ knotsBaromVisibWave heightAir tempDewpointWater temp
2015-May-20 23:20N 35°32' E 140°50'1012.8
2015-May-20 22:32N 35°24' E 140°42'1312.8
2015-May-20 21:33N 35°14' E 140°32'1712.7
2015-May-20 20:11N 35°02' E 140°18'812.1
2015-May-20 19:33N 34°57' E 140°10'2110.8
2015-May-20 17:34N 34°54' E 139°44'1212.4
2015-May-20 16:33N 35°06' E 139°45'1212.2
2015-May-20 15:33N 35°19' E 139°44'1111.4
2015-May-20 14:34N 35°29' E 139°48'2 2.2
2015-May-20 13:32N 35°31' E 139°46'0 0.0
2015-May-20 12:32N 35°31' E 139°46'0 0.0
2015-May-20 11:32N 35°31' E 139°46'0 0.0
2015-May-20 10:32N 35°31' E 139°46'0 0.0
2015-May-20 09:23N 35°31' E 139°46'0 0.0
2015-May-20 08:32N 35°31' E 139°46'0 0.0
2015-May-20 07:33N 35°31' E 139°46'5 4.9
2015-May-20 06:33N 35°27' E 139°43'4 3.7
2015-May-20 05:31N 35°23' E 139°44'0 0.0
2015-May-20 04:31N 35°23' E 139°44'0 0.1
2015-May-20 03:31N 35°23' E 139°44'0 0.0
2015-May-20 02:31N 35°23' E 139°44'0 0.0
2015-May-20 01:31N 35°23' E 139°44'0 0.0
2015-May-20 00:31N 35°23' E 139°44'0 0.0
2015-May-19 23:31N 35°23' E 139°44'0 0.0
2015-May-19 22:31N 35°23' E 139°44'0 0.0
2015-May-19 21:31N 35°23' E 139°44'0 0.0
2015-May-19 20:31N 35°23' E 139°44'0 0.0
2015-May-19 19:31N 35°23' E 139°44'1 0.5
2015-May-19 18:33N 35°23' E 139°45'1211.6
2015-May-19 17:34N 35°11' E 139°47'1313.2
2015-May-19 16:33N 35°01' E 139°37'  
2015-May-17 02:27N 34°57' E 140°11'2513.0
2015-May-17 00:33N 35°14' E 140°33'1312.7
2015-May-16 23:31N 35°25' E 140°43'2712.2
2015-May-16 21:20N 35°48' E 140°58'1313.4
2015-May-16 20:21N 36°01' E 140°60'1113.3
2015-May-16 19:32N 36°12' E 141°01'39 1.4
2015-May-15 15:33N 35°33' E 140°55'4714.5
2015-May-15 12:18N 34°60' E 140°15'1114.2
2015-May-15 11:30N 34°53' E 140°03'19 9.6
2015-May-15 09:33N 34°60' E 139°42'1212.3
2015-May-15 08:33N 35°12' E 139°46'1211.9
2015-May-15 07:33N 35°23' E 139°42'1212.0
2015-May-15 06:33N 35°31' E 139°54'7 6.4
2015-May-15 05:30N 35°31' E 140°02'0 0.0
2015-May-15 04:33N 35°31' E 140°02'0 0.0
2015-May-15 03:25N 35°31' E 140°02'0 0.0
2015-May-15 02:33N 35°31' E 140°02'0 0.0
2015-May-15 01:27N 35°31' E 140°02'0 0.0
2015-May-15 00:27N 35°31' E 140°02'0 0.0
2015-May-14 23:30N 35°31' E 140°02'0 0.0
2015-May-14 22:33N 35°31' E 140°02'0 0.1
2015-May-14 21:33N 35°31' E 140°02'5 5.1
2015-May-14 20:33N 35°35' E 140°05'1 1.1
2015-May-14 19:30N 35°36' E 140°06'0 0.0
2015-May-14 18:33N 35°36' E 140°06'0 0.0
2015-May-14 17:33N 35°36' E 140°06'0 0.0
2015-May-14 16:33N 35°36' E 140°06'0 0.0
2015-May-14 15:24N 35°36' E 140°06'0 0.0
2015-May-14 14:33N 35°36' E 140°06'0 0.0
2015-May-14 13:33N 35°36' E 140°06'0 0.0
2015-May-14 12:30N 35°36' E 140°06'0 0.0
2015-May-14 11:33N 35°36' E 140°06'0 0.0
2015-May-14 10:30N 35°36' E 140°06'0 0.0
2015-May-14 09:18N 35°36' E 140°06'0 0.0
2015-May-14 08:30N 35°36' E 140°06'0 0.0
2015-May-14 07:27N 35°36' E 140°06'0 0.0
2015-May-14 06:30N 35°36' E 140°06'0 0.0
2015-May-14 05:30N 35°36' E 140°06'0 0.0
2015-May-14 04:30N 35°36' E 140°06'0 0.0
2015-May-14 03:33N 35°36' E 140°06'0 0.0
2015-May-14 02:30N 35°36' E 140°06'0 0.0
2015-May-14 01:28N 35°36' E 140°06'6 6.8
2015-May-14 00:34N 35°33' E 139°59'1413.5
2015-May-13 23:33N 35°24' E 139°46'1211.8
2015-May-13 22:33N 35°12' E 139°47'1413.7
2015-May-13 21:33N 34°59' E 139°43'20 8.9
2015-May-13 19:20N 34°57' E 140°07'1011.4
2015-May-13 18:28N 35°02' E 140°17'3110.4
2015-May-13 15:32N 35°25' E 140°42'1311.0
2015-May-13 14:19N 35°36' E 140°52'911.2
2015-May-13 13:28N 35°44' E 140°57'1110.9
2015-May-13 12:30N 35°54' E 140°55'3110.4
2015-May-13 09:33N 36°25' E 141°00'  
Track history (hours):
 
Tides and Currents Weather Stations Pressure Air Temp Water Temp Dewpoint Dewpoint Depression Visibility Wind Speed Wind Dir Waves Ship Positions

New Yoshino

Last reported at 2015-May-20 23:20 UTC. Time now 2015-May-22 13:05 UTC.
Position N 35°32' E 140°50'.

Length 102 m; draft 6.5 m.

Type: Tanker. MMSI: 431300724.

Date/timePositionNaut miles runAvg speedWind from/ knotsBaromVisibWave heightAir tempDewpointWater temp
2015-May-20 23:20N 35°32' E 140°50'1012.8
2015-May-20 22:32N 35°24' E 140°42'1312.8
2015-May-20 21:33N 35°14' E 140°32'1712.7
2015-May-20 20:11N 35°02' E 140°18'812.1
2015-May-20 19:33N 34°57' E 140°10'2110.8
2015-May-20 17:34N 34°54' E 139°44'1212.4
2015-May-20 16:33N 35°06' E 139°45'1212.2
2015-May-20 15:33N 35°19' E 139°44'1111.4
2015-May-20 14:34N 35°29' E 139°48'2 2.2
2015-May-20 13:32N 35°31' E 139°46'0 0.0
2015-May-20 12:32N 35°31' E 139°46'0 0.0
2015-May-20 11:32N 35°31' E 139°46'0 0.0
2015-May-20 10:32N 35°31' E 139°46'0 0.0
2015-May-20 09:23N 35°31' E 139°46'0 0.0
2015-May-20 08:32N 35°31' E 139°46'0 0.0
2015-May-20 07:33N 35°31' E 139°46'5 4.9
2015-May-20 06:33N 35°27' E 139°43'4 3.7
2015-May-20 05:31N 35°23' E 139°44'0 0.0
2015-May-20 04:31N 35°23' E 139°44'0 0.1
2015-May-20 03:31N 35°23' E 139°44'0 0.0
2015-May-20 02:31N 35°23' E 139°44'0 0.0
2015-May-20 01:31N 35°23' E 139°44'0 0.0
2015-May-20 00:31N 35°23' E 139°44'0 0.0
2015-May-19 23:31N 35°23' E 139°44'0 0.0
2015-May-19 22:31N 35°23' E 139°44'0 0.0
2015-May-19 21:31N 35°23' E 139°44'0 0.0
2015-May-19 20:31N 35°23' E 139°44'0 0.0
2015-May-19 19:31N 35°23' E 139°44'1 0.5
2015-May-19 18:33N 35°23' E 139°45'1211.6
2015-May-19 17:34N 35°11' E 139°47'1313.2
2015-May-19 16:33N 35°01' E 139°37'  
2015-May-17 02:27N 34°57' E 140°11'2513.0
2015-May-17 00:33N 35°14' E 140°33'1312.7
2015-May-16 23:31N 35°25' E 140°43'2712.2
2015-May-16 21:20N 35°48' E 140°58'1313.4
2015-May-16 20:21N 36°01' E 140°60'1113.3
2015-May-16 19:32N 36°12' E 141°01'39 1.4
2015-May-15 15:33N 35°33' E 140°55'4714.5
2015-May-15 12:18N 34°60' E 140°15'1114.2
2015-May-15 11:30N 34°53' E 140°03'19 9.6
2015-May-15 09:33N 34°60' E 139°42'1212.3
2015-May-15 08:33N 35°12' E 139°46'1211.9
2015-May-15 07:33N 35°23' E 139°42'1212.0
2015-May-15 06:33N 35°31' E 139°54'7 6.4
2015-May-15 05:30N 35°31' E 140°02'0 0.0
2015-May-15 04:33N 35°31' E 140°02'0 0.0
2015-May-15 03:25N 35°31' E 140°02'0 0.0
2015-May-15 02:33N 35°31' E 140°02'0 0.0
2015-May-15 01:27N 35°31' E 140°02'0 0.0
2015-May-15 00:27N 35°31' E 140°02'0 0.0
2015-May-14 23:30N 35°31' E 140°02'0 0.0
2015-May-14 22:33N 35°31' E 140°02'0 0.1
2015-May-14 21:33N 35°31' E 140°02'5 5.1
2015-May-14 20:33N 35°35' E 140°05'1 1.1
2015-May-14 19:30N 35°36' E 140°06'0 0.0
2015-May-14 18:33N 35°36' E 140°06'0 0.0
2015-May-14 17:33N 35°36' E 140°06'0 0.0
2015-May-14 16:33N 35°36' E 140°06'0 0.0
2015-May-14 15:24N 35°36' E 140°06'0 0.0
2015-May-14 14:33N 35°36' E 140°06'0 0.0
2015-May-14 13:33N 35°36' E 140°06'0 0.0
2015-May-14 12:30N 35°36' E 140°06'0 0.0
2015-May-14 11:33N 35°36' E 140°06'0 0.0
2015-May-14 10:30N 35°36' E 140°06'0 0.0
2015-May-14 09:18N 35°36' E 140°06'0 0.0
2015-May-14 08:30N 35°36' E 140°06'0 0.0
2015-May-14 07:27N 35°36' E 140°06'0 0.0
2015-May-14 06:30N 35°36' E 140°06'0 0.0
2015-May-14 05:30N 35°36' E 140°06'0 0.0
2015-May-14 04:30N 35°36' E 140°06'0 0.0
2015-May-14 03:33N 35°36' E 140°06'0 0.0
2015-May-14 02:30N 35°36' E 140°06'0 0.0
2015-May-14 01:28N 35°36' E 140°06'6 6.8
2015-May-14 00:34N 35°33' E 139°59'1413.5
2015-May-13 23:33N 35°24' E 139°46'1211.8
2015-May-13 22:33N 35°12' E 139°47'1413.7
2015-May-13 21:33N 34°59' E 139°43'20 8.9
2015-May-13 19:20N 34°57' E 140°07'1011.4
2015-May-13 18:28N 35°02' E 140°17'3110.4
2015-May-13 15:32N 35°25' E 140°42'1311.0
2015-May-13 14:19N 35°36' E 140°52'911.2
2015-May-13 13:28N 35°44' E 140°57'1110.9
2015-May-13 12:30N 35°54' E 140°55'3110.4
2015-May-13 09:33N 36°25' E 141°00'  

Dump ship's entire track history